首页
METAR-TAF:

METAR-TAF

机场 :

塔曼拉塞特, 阿尔及利亚

纬度: 22-49N, 经度: 005-28E, 海拔: 1377米

当前天气观测

该预报发布于36分钟前的10:30 UTC
风速8节,风向东南,在东转东北之间变化
温度 35°C
湿度 14%
气压 1024 hPa
能見度: 8000
少量云层高于4600英尺

METAR: DAAT 231030Z 13008KT 070V190 8000 FEW046 35/04 Q1024

时间: 12:06 (11:06 UTC)

预报

该预报发布于6小时和6分钟前的05:00 UTC
预报有效从23日的 06点(UTC)到 24日的 06点(UTC)
风速8节,风向东转东南
能見度: 8000
几率 30% :
短暂存在
从 23日的 06点(UTC)到 23日的 10点(UTC)
能見度: 4000
几率 40% :
短暂存在
从 23日的 14点(UTC)到 23日的 20点(UTC)
少量云层高于4000英尺, 积雨云.
散云层高于4600英尺, 塔状积云.
几率 30% :
短暂存在
从 23日的 15点(UTC)到 23日的 18点(UTC)
风速15节,风向多变,有时为25节阵风
少量云层高于3000英尺, 积雨云.
雷暴,

TAF: DAAT 230500Z 2306/2406 12008KT 8000 NSC PROB30 TEMPO 2306/2310 4000 HZ PROB40 TEMPO 2314/2320 FEW040CB SCT046TCU PROB30 TEMPO 2315/2318 VRB15G25KT TS FEW030CB

超过4000个机场的气象观测和天气预报(METAR&TAF报告)。

可查询的气象台以黄色和红色小点在地图上表示。

将鼠标移到小点上方,可查看气象台名称。

然后点击查看天气观测和预报。

如需切换地图:点击带黑十字的绿色按钮放大地图;点击带横线的绿色按钮缩小地图;或者点击绿色箭头查看邻近地区的地图。


METAR-TAF: